createdAt,value
2023-04-21T00:00:46.017Z,8.05
2023-04-21T00:01:48.002Z,8.15
2023-04-21T00:02:51.599Z,8.25
2023-04-21T00:03:53.875Z,8.27
2023-04-21T00:04:56.253Z,8.26
2023-04-21T00:06:00.771Z,8.30
2023-04-21T00:07:02.719Z,8.31
2023-04-21T00:08:04.577Z,8.35
2023-04-21T00:09:07.882Z,8.42
2023-04-21T00:10:11.090Z,8.33
2023-04-21T00:11:12.999Z,8.25
2023-04-21T00:12:15.035Z,8.23
2023-04-21T00:13:16.870Z,8.33
2023-04-21T00:14:19.069Z,8.23
2023-04-21T00:15:20.917Z,8.23
2023-04-21T00:16:23.049Z,8.27
2023-04-21T00:17:25.974Z,8.41
2023-04-21T00:18:29.061Z,8.43
2023-04-21T00:19:31.151Z,8.34
2023-04-21T00:20:33.408Z,8.34
2023-04-21T00:21:35.904Z,8.29
2023-04-21T00:22:37.788Z,8.41
2023-04-21T00:23:39.641Z,8.34
2023-04-21T00:24:41.646Z,8.36
2023-04-21T00:25:43.519Z,8.36
2023-04-21T00:26:45.443Z,8.37
2023-04-21T00:27:48.306Z,8.36
2023-04-21T00:28:50.269Z,8.38
2023-04-21T00:29:52.146Z,8.34
2023-04-21T00:30:54.201Z,8.33
2023-04-21T00:31:56.308Z,8.37
2023-04-21T00:32:58.553Z,8.34
2023-04-21T00:34:00.574Z,8.33
2023-04-21T00:35:03.938Z,8.29
2023-04-21T00:36:06.348Z,8.23
2023-04-21T00:37:08.258Z,8.28
2023-04-21T00:38:10.413Z,8.36
2023-04-21T00:39:13.471Z,8.34
2023-04-21T00:40:15.788Z,8.21
2023-04-21T00:41:17.876Z,8.24
2023-04-21T00:42:19.888Z,8.13
2023-04-21T00:43:21.907Z,8.17
2023-04-21T00:44:23.863Z,8.20
2023-04-21T00:45:26.168Z,7.92
2023-04-21T00:46:28.957Z,8.15
2023-04-21T00:47:31.409Z,8.17
2023-04-21T00:48:33.568Z,8.03
2023-04-21T00:49:36.084Z,8.06
2023-04-21T00:50:38.684Z,8.14
2023-04-21T00:51:40.856Z,8.14
2023-04-21T00:52:44.050Z,8.18
2023-04-21T00:53:46.859Z,8.15
2023-04-21T00:54:49.421Z,8.21
2023-04-21T00:55:54.264Z,8.21
2023-04-21T00:56:56.693Z,8.22
2023-04-21T00:57:59.590Z,8.28
2023-04-21T00:59:02.383Z,8.33
2023-04-21T01:00:05.863Z,8.39
2023-04-21T01:01:08.075Z,8.32
2023-04-21T01:02:10.701Z,8.28
2023-04-21T01:03:13.386Z,8.18
2023-04-21T01:04:15.451Z,7.90
2023-04-21T01:05:17.519Z,8.09
2023-04-21T01:06:19.800Z,8.06
2023-04-21T01:07:21.862Z,8.03
2023-04-21T01:08:23.721Z,8.05
2023-04-21T01:09:26.647Z,7.81
2023-04-21T01:10:31.754Z,8.02
2023-04-21T01:11:33.719Z,7.98
2023-04-21T01:12:42.905Z,7.90
2023-04-21T01:13:44.868Z,7.96
2023-04-21T01:14:46.716Z,7.84
2023-04-21T01:15:49.058Z,7.85
2023-04-21T01:16:51.133Z,7.96
2023-04-21T01:17:53.197Z,8.11
2023-04-21T01:18:55.387Z,8.00
2023-04-21T01:20:00.220Z,8.06
2023-04-21T01:21:03.471Z,7.82
2023-04-21T01:22:10.083Z,7.84
2023-04-21T01:23:11.965Z,7.98
2023-04-21T01:24:14.105Z,7.99
2023-04-21T01:25:15.973Z,7.88
2023-04-21T01:27:29.671Z,7.87
2023-04-21T01:28:31.546Z,7.77
2023-04-21T01:29:33.885Z,7.97
2023-04-21T01:30:36.047Z,7.95
2023-04-21T01:31:38.035Z,7.98
2023-04-21T01:32:40.132Z,8.06
2023-04-21T01:33:42.069Z,7.92
2023-04-21T01:34:44.601Z,8.04
2023-04-21T01:35:48.322Z,7.89
2023-04-21T01:36:50.562Z,7.80
2023-04-21T01:37:52.419Z,7.98
2023-04-21T01:38:54.289Z,7.88
2023-04-21T01:39:59.345Z,7.75
2023-04-21T01:41:01.460Z,7.70
2023-04-21T01:42:05.888Z,7.82
2023-04-21T01:43:08.998Z,7.73
2023-04-21T01:44:13.935Z,7.77
2023-04-21T01:45:15.906Z,7.93
2023-04-21T01:46:19.910Z,7.80
2023-04-21T01:47:23.488Z,7.76
2023-04-21T01:48:25.490Z,7.80
2023-04-21T01:49:27.393Z,7.78
2023-04-21T01:50:29.660Z,7.81
2023-04-21T01:51:31.527Z,7.62
2023-04-21T01:52:33.609Z,7.83
2023-04-21T01:53:35.428Z,7.83
2023-04-21T01:54:38.794Z,7.61
2023-04-21T01:55:40.948Z,7.62
2023-04-21T01:56:44.098Z,7.61
2023-04-21T01:57:46.076Z,7.78
2023-04-21T01:58:47.935Z,7.75
2023-04-21T01:59:49.971Z,7.70
2023-04-21T02:00:51.932Z,7.58
2023-04-21T02:01:53.956Z,7.56
2023-04-21T02:02:57.202Z,7.63
2023-04-21T02:03:59.751Z,7.60
2023-04-21T02:05:02.121Z,7.52
2023-04-21T02:06:05.880Z,7.62
2023-04-21T02:07:07.865Z,7.75
2023-04-21T02:08:09.718Z,7.68
2023-04-21T02:09:11.841Z,7.60
2023-04-21T02:10:16.122Z,7.58
2023-04-21T02:11:18.102Z,7.50
2023-04-21T02:12:20.051Z,7.58
2023-04-21T02:13:21.930Z,7.50
2023-04-21T02:14:24.994Z,7.46
2023-04-21T02:15:27.151Z,7.47
2023-04-21T02:16:32.540Z,7.46
2023-04-21T02:17:35.177Z,7.33
2023-04-21T02:18:37.358Z,7.38
2023-04-21T02:19:39.988Z,7.54
2023-04-21T02:20:42.072Z,7.39
2023-04-21T02:21:44.009Z,7.46
2023-04-21T02:22:45.857Z,7.53
2023-04-21T02:23:48.272Z,7.48
2023-04-21T02:24:50.147Z,7.51
2023-04-21T02:25:52.010Z,7.51
2023-04-21T02:26:54.088Z,7.61
2023-04-21T02:27:57.019Z,7.58
2023-04-21T02:28:59.257Z,7.56
2023-04-21T02:30:01.317Z,7.40
2023-04-21T02:31:03.826Z,7.41
2023-04-21T02:33:09.737Z,7.29
2023-04-21T02:34:11.951Z,7.48
2023-04-21T02:35:13.824Z,7.49
2023-04-21T02:36:17.271Z,7.29
2023-04-21T02:37:20.251Z,7.29
2023-04-21T02:38:22.216Z,7.31
2023-04-21T02:39:24.683Z,7.20
2023-04-21T02:40:26.661Z,7.39
2023-04-21T02:41:29.787Z,7.26
2023-04-21T02:42:34.586Z,7.17
2023-04-21T02:43:37.704Z,7.10
2023-04-21T02:44:39.715Z,7.08
2023-04-21T02:45:43.256Z,7.08
2023-04-21T02:46:45.447Z,7.10
2023-04-21T02:47:47.404Z,7.05
2023-04-21T02:48:49.481Z,7.06
2023-04-21T02:49:51.462Z,6.93
2023-04-21T02:50:54.647Z,7.03
2023-04-21T02:51:57.507Z,7.07
2023-04-21T02:52:59.420Z,6.96
2023-04-21T02:54:01.301Z,6.91
2023-04-21T02:55:03.574Z,6.93
2023-04-21T02:56:07.370Z,6.95
2023-04-21T02:57:09.232Z,7.03
2023-04-21T02:58:11.372Z,7.09
2023-04-21T02:59:13.438Z,6.93
2023-04-21T03:00:15.850Z,6.97
2023-04-21T03:01:17.859Z,6.93
2023-04-21T03:02:20.246Z,7.02
2023-04-21T03:03:24.636Z,7.03
2023-04-21T03:04:27.009Z,6.90
2023-04-21T03:05:31.437Z,6.90
2023-04-21T03:06:33.821Z,6.98
2023-04-21T03:07:35.780Z,6.92
2023-04-21T03:08:37.856Z,6.92
2023-04-21T03:09:40.693Z,6.91
2023-04-21T03:10:42.733Z,6.91
2023-04-21T03:11:44.619Z,6.98
2023-04-21T03:12:46.567Z,6.95
2023-04-21T03:13:48.523Z,6.87
2023-04-21T03:14:51.722Z,6.84
2023-04-21T03:15:54.209Z,6.83
2023-04-21T03:16:56.285Z,6.81
2023-04-21T03:17:58.594Z,6.87
2023-04-21T03:19:00.692Z,6.77
2023-04-21T03:20:03.042Z,6.97
2023-04-21T03:21:06.318Z,6.86
2023-04-21T03:22:09.620Z,6.87
2023-04-21T03:23:13.811Z,6.98
2023-04-21T03:24:15.904Z,7.04
2023-04-21T03:25:17.912Z,7.01
2023-04-21T03:26:19.873Z,6.94
2023-04-21T03:27:21.700Z,6.97
2023-04-21T03:28:23.873Z,6.96
2023-04-21T03:29:25.952Z,7.01
2023-04-21T03:30:28.301Z,6.97
2023-04-21T03:31:30.214Z,7.07
2023-04-21T03:32:32.282Z,7.08
2023-04-21T03:33:35.110Z,6.96
2023-04-21T03:34:37.026Z,6.95
2023-04-21T03:35:38.892Z,6.84
2023-04-21T03:36:40.851Z,7.07
2023-04-21T03:37:42.700Z,6.99
2023-04-21T03:38:44.569Z,7.08
2023-04-21T03:39:46.447Z,7.04
2023-04-21T03:40:48.949Z,7.10
2023-04-21T03:41:51.195Z,6.93
2023-04-21T03:42:53.111Z,6.87
2023-04-21T03:43:54.994Z,6.98
2023-04-21T03:45:03.742Z,6.96
2023-04-21T03:46:06.331Z,6.84
2023-04-21T03:47:08.397Z,7.01
2023-04-21T03:48:10.390Z,7.11
2023-04-21T03:49:12.306Z,6.99
2023-04-21T03:50:16.624Z,6.97
2023-04-21T03:51:18.492Z,6.89
2023-04-21T03:52:20.344Z,6.91
2023-04-21T03:53:23.321Z,6.90
2023-04-21T03:54:25.417Z,6.89
2023-04-21T03:55:27.334Z,6.93
2023-04-21T03:56:29.443Z,6.85
2023-04-21T03:57:31.413Z,6.95
2023-04-21T03:58:33.681Z,7.06
2023-04-21T03:59:36.680Z,6.88
2023-04-21T04:00:38.960Z,7.01
2023-04-21T04:01:41.231Z,7.01
2023-04-21T04:02:43.243Z,6.87
2023-04-21T04:03:45.375Z,6.97
2023-04-21T04:04:47.618Z,7.02
2023-04-21T04:05:49.728Z,7.10
2023-04-21T04:06:51.704Z,7.01
2023-04-21T04:07:53.567Z,7.10
2023-04-21T04:08:55.524Z,7.18
2023-04-21T04:09:57.409Z,7.16
2023-04-21T04:10:59.494Z,7.00
2023-04-21T04:12:01.356Z,7.10
2023-04-21T04:13:03.294Z,7.09
2023-04-21T04:14:05.174Z,7.17
2023-04-21T04:15:08.194Z,7.07
2023-04-21T04:16:10.634Z,7.20
2023-04-21T04:17:14.822Z,7.17
2023-04-21T04:18:16.740Z,7.16
2023-04-21T04:19:18.890Z,7.13
2023-04-21T04:20:24.060Z,7.15
2023-04-21T04:21:26.754Z,7.29
2023-04-21T04:22:28.613Z,7.31
2023-04-21T04:23:30.480Z,7.32
2023-04-21T04:24:33.375Z,7.32
2023-04-21T04:25:35.256Z,7.21
2023-04-21T04:26:37.207Z,7.32
2023-04-21T04:27:39.024Z,7.37
2023-04-21T04:28:40.932Z,7.52
2023-04-21T04:29:42.808Z,7.53
2023-04-21T04:30:44.874Z,7.53
2023-04-21T04:31:46.802Z,7.64
2023-04-21T04:32:48.926Z,7.74
2023-04-21T04:33:55.550Z,7.69
2023-04-21T04:34:57.765Z,7.71
2023-04-21T04:35:59.953Z,7.77
2023-04-21T04:37:02.241Z,7.79
2023-04-21T04:38:04.344Z,7.76
2023-04-21T04:39:08.312Z,7.99
2023-04-21T04:40:11.396Z,7.90
2023-04-21T04:41:13.306Z,7.99
2023-04-21T04:42:15.166Z,7.97
2023-04-21T04:43:17.142Z,8.01
2023-04-21T04:44:19.660Z,8.05
2023-04-21T04:45:21.766Z,8.07
2023-04-21T04:46:23.860Z,8.16
2023-04-21T04:47:25.856Z,8.15
2023-04-21T04:48:28.726Z,8.19
2023-04-21T04:49:30.595Z,8.21
2023-04-21T04:50:32.739Z,8.06
2023-04-21T04:51:34.849Z,8.17
2023-04-21T04:52:37.992Z,8.17
2023-04-21T04:53:40.017Z,8.22
2023-04-21T04:54:42.184Z,8.22
2023-04-21T04:55:44.049Z,8.23
2023-04-21T04:56:46.084Z,8.12
2023-04-21T04:57:48.002Z,8.11
2023-04-21T04:58:50.491Z,8.02
2023-04-21T04:59:56.080Z,8.13
2023-04-21T05:00:58.310Z,8.14
2023-04-21T05:02:00.263Z,8.30
2023-04-21T05:03:02.673Z,8.39
2023-04-21T05:04:05.056Z,8.28
2023-04-21T05:05:08.330Z,8.29
2023-04-21T05:06:10.769Z,8.19
2023-04-21T05:07:12.922Z,8.34
2023-04-21T05:08:18.133Z,8.37
2023-04-21T05:09:22.246Z,8.36
2023-04-21T05:10:24.262Z,8.39
2023-04-21T05:11:26.840Z,8.29
2023-04-21T05:12:30.495Z,8.41
2023-04-21T05:13:32.416Z,8.41
2023-04-21T05:14:36.620Z,8.49
2023-04-21T05:15:38.520Z,8.52
2023-04-21T05:16:43.017Z,8.51
2023-04-21T05:17:45.285Z,8.45
2023-04-21T05:18:47.328Z,8.47
2023-04-21T05:19:49.171Z,8.37
2023-04-21T05:20:51.276Z,8.44
2023-04-21T05:21:58.506Z,8.43
2023-04-21T05:23:00.426Z,8.52
2023-04-21T05:24:03.605Z,8.51
2023-04-21T05:25:07.992Z,8.55
2023-04-21T05:26:10.459Z,8.51
2023-04-21T05:27:12.490Z,8.52
2023-04-21T05:28:14.486Z,8.58
2023-04-21T05:29:16.418Z,8.59
2023-04-21T05:30:18.845Z,8.57
2023-04-21T05:31:22.885Z,8.61
2023-04-21T05:32:25.281Z,8.70
2023-04-21T05:33:27.273Z,8.74
2023-04-21T05:34:30.847Z,8.83
2023-04-21T05:35:34.195Z,8.84
2023-04-21T05:36:39.907Z,8.93
2023-04-21T05:37:41.796Z,8.81
2023-04-21T05:38:43.752Z,8.99
2023-04-21T05:39:46.085Z,9.02
2023-04-21T05:40:54.855Z,9.06
2023-04-21T05:41:56.917Z,9.08
2023-04-21T05:42:58.902Z,9.21
2023-04-21T05:44:01.269Z,9.14
2023-04-21T05:45:04.804Z,9.04
2023-04-21T05:46:10.262Z,9.10
2023-04-21T05:47:12.751Z,9.15
2023-04-21T05:48:14.650Z,9.28
2023-04-21T05:49:16.574Z,9.37
2023-04-21T05:50:18.852Z,9.45
2023-04-21T05:51:21.910Z,9.60
2023-04-21T05:52:23.867Z,9.73
2023-04-21T05:53:25.891Z,9.72
2023-04-21T05:54:27.982Z,9.84
2023-04-21T05:55:29.964Z,9.83
2023-04-21T05:56:32.017Z,9.86
2023-04-21T05:57:33.860Z,9.94
2023-04-21T05:58:36.449Z,9.87
2023-04-21T05:59:38.623Z,9.96
2023-04-21T06:00:40.760Z,9.98
2023-04-21T06:01:44.324Z,9.96
2023-04-21T06:02:46.423Z,9.90
2023-04-21T06:03:49.451Z,9.81
2023-04-21T06:04:51.782Z,9.81
2023-04-21T06:05:55.095Z,9.87
2023-04-21T06:06:57.557Z,9.92
2023-04-21T06:07:59.535Z,10.01
2023-04-21T06:09:01.393Z,9.89
2023-04-21T06:10:04.468Z,9.87
2023-04-21T06:11:06.642Z,9.96
2023-04-21T06:12:08.628Z,9.86
2023-04-21T06:13:10.584Z,9.91
2023-04-21T06:14:12.437Z,9.88
2023-04-21T06:15:14.337Z,9.97
2023-04-21T06:16:16.330Z,9.79
2023-04-21T06:17:19.505Z,9.80
2023-04-21T06:18:21.952Z,9.81
2023-04-21T06:19:24.051Z,9.74
2023-04-21T06:20:26.038Z,9.96
2023-04-21T06:21:27.937Z,10.00
2023-04-21T06:22:29.891Z,9.99
2023-04-21T06:23:31.932Z,10.11
2023-04-21T06:24:33.903Z,10.08
2023-04-21T06:25:35.901Z,10.17
2023-04-21T06:26:38.059Z,10.24
2023-04-21T06:27:39.934Z,10.20
2023-04-21T06:28:41.893Z,10.27
2023-04-21T06:29:44.264Z,10.37
2023-04-21T06:30:46.347Z,10.39
2023-04-21T06:31:48.413Z,10.37
2023-04-21T06:32:50.465Z,10.34
2023-04-21T06:33:52.486Z,10.29
2023-04-21T06:34:54.352Z,10.28
2023-04-21T06:35:57.622Z,10.28
2023-04-21T06:36:59.710Z,10.41
2023-04-21T06:38:01.577Z,10.56
2023-04-21T06:39:03.561Z,10.68
2023-04-21T06:40:07.543Z,10.64
2023-04-21T06:41:09.631Z,10.60
2023-04-21T06:42:11.518Z,10.87
2023-04-21T06:43:13.490Z,10.91
2023-04-21T06:44:15.370Z,10.85
2023-04-21T06:45:19.089Z,11.01
2023-04-21T06:46:21.358Z,11.01
2023-04-21T06:47:23.492Z,10.97
2023-04-21T06:48:25.713Z,10.91
2023-04-21T06:49:27.573Z,10.97
2023-04-21T06:50:29.952Z,10.92
2023-04-21T06:51:32.081Z,11.08
2023-04-21T06:52:33.945Z,10.93
2023-04-21T06:53:35.806Z,11.04
2023-04-21T06:54:37.648Z,11.18
2023-04-21T06:55:39.503Z,11.20
2023-04-21T06:56:41.488Z,11.19
2023-04-21T06:57:44.254Z,11.16
2023-04-21T06:58:49.031Z,11.18
2023-04-21T06:59:51.747Z,11.09
2023-04-21T07:00:53.876Z,11.23
2023-04-21T07:01:56.133Z,11.27
2023-04-21T07:02:58.417Z,11.16
2023-04-21T07:04:00.733Z,11.14
2023-04-21T07:05:03.324Z,11.21
2023-04-21T07:06:05.668Z,11.20
2023-04-21T07:07:07.688Z,11.21
2023-04-21T07:08:10.260Z,11.07
2023-04-21T07:09:12.352Z,11.25
2023-04-21T07:10:14.637Z,11.29
2023-04-21T07:11:17.746Z,11.44
2023-04-21T07:12:19.600Z,11.47
2023-04-21T07:13:21.553Z,11.53
2023-04-21T07:14:24.308Z,11.36
2023-04-21T07:15:26.422Z,11.42
2023-04-21T07:16:32.136Z,11.48
2023-04-21T07:17:35.465Z,11.42
2023-04-21T07:18:39.407Z,11.46
2023-04-21T07:19:41.346Z,11.46
2023-04-21T07:20:44.332Z,11.45
2023-04-21T07:21:46.323Z,11.56
2023-04-21T07:22:48.283Z,11.46
2023-04-21T07:23:50.252Z,11.56
2023-04-21T07:24:52.147Z,11.45
2023-04-21T07:25:54.387Z,11.53
2023-04-21T07:26:56.375Z,11.60
2023-04-21T07:27:58.396Z,11.72
2023-04-21T07:29:00.432Z,11.54
2023-04-21T07:30:06.557Z,11.56
2023-04-21T07:31:08.614Z,11.77
2023-04-21T07:32:10.766Z,11.85
2023-04-21T07:33:13.511Z,12.11
2023-04-21T07:34:15.550Z,12.21
2023-04-21T07:35:17.826Z,11.90
2023-04-21T07:36:21.096Z,12.17
2023-04-21T07:37:24.907Z,12.30
2023-04-21T07:38:27.127Z,12.47
2023-04-21T07:39:28.991Z,12.47
2023-04-21T07:40:31.267Z,12.62
2023-04-21T07:41:33.382Z,12.74
2023-04-21T07:42:35.488Z,12.71
2023-04-21T07:43:38.746Z,12.80
2023-04-21T07:44:42.649Z,12.80
2023-04-21T07:45:49.080Z,12.84
2023-04-21T07:46:51.266Z,12.72
2023-04-21T07:47:53.221Z,12.54
2023-04-21T07:48:57.308Z,12.56
2023-04-21T07:49:59.433Z,12.57
2023-04-21T07:51:01.545Z,12.56
2023-04-21T07:52:04.630Z,12.56
2023-04-21T07:53:06.483Z,12.44
2023-04-21T07:54:08.370Z,12.50
2023-04-21T07:55:10.234Z,12.31
2023-04-21T07:56:12.812Z,12.25
2023-04-21T07:57:14.769Z,12.38
2023-04-21T07:58:16.949Z,12.44
2023-04-21T07:59:19.221Z,12.36
2023-04-21T08:00:21.585Z,12.29
2023-04-21T08:01:23.667Z,12.39
2023-04-21T08:02:26.780Z,12.44
2023-04-21T08:03:29.215Z,12.37
2023-04-21T08:04:31.451Z,12.44
2023-04-21T08:05:36.674Z,12.52
2023-04-21T08:06:38.924Z,12.60
2023-04-21T08:07:40.872Z,12.61
2023-04-21T08:08:42.910Z,12.62
2023-04-21T08:09:44.959Z,12.30
2023-04-21T08:10:47.942Z,12.15
2023-04-21T08:11:51.846Z,12.17
2023-04-21T08:12:54.083Z,12.18
2023-04-21T08:13:56.190Z,12.41
2023-04-21T08:14:58.311Z,12.42
2023-04-21T08:16:00.224Z,12.56
2023-04-21T08:17:02.289Z,12.64
2023-04-21T08:18:04.612Z,12.65
2023-04-21T08:19:07.966Z,12.59
2023-04-21T08:20:11.357Z,12.71
2023-04-21T08:21:13.243Z,12.94
2023-04-21T08:22:15.512Z,12.86
2023-04-21T08:23:19.465Z,12.92
2023-04-21T08:24:22.277Z,12.85
2023-04-21T08:25:24.873Z,12.72
2023-04-21T08:26:27.787Z,12.73
2023-04-21T08:27:29.797Z,12.69
2023-04-21T08:28:31.669Z,12.69
2023-04-21T08:29:33.632Z,12.63
2023-04-21T08:30:35.825Z,12.57
2023-04-21T08:31:38.717Z,12.39
2023-04-21T08:32:40.785Z,12.49
2023-04-21T08:33:57.903Z,12.50
2023-04-21T08:34:49.064Z,12.70
2023-04-21T08:36:02.320Z,12.75
2023-04-21T08:36:54.942Z,12.79
2023-04-21T08:37:56.839Z,12.59
2023-04-21T08:38:59.239Z,12.53
2023-04-21T08:40:01.715Z,12.51
2023-04-21T08:41:06.706Z,12.66
2023-04-21T08:42:09.142Z,12.89
2023-04-21T08:43:11.578Z,12.95
2023-04-21T08:44:13.535Z,13.00
2023-04-21T08:45:15.786Z,12.89
2023-04-21T08:46:18.994Z,12.83
2023-04-21T08:47:24.397Z,12.79
2023-04-21T08:48:29.092Z,12.65
2023-04-21T08:49:33.632Z,12.50
2023-04-21T08:50:38.184Z,12.55
2023-04-21T08:51:40.464Z,12.58
2023-04-21T08:52:42.359Z,12.46
2023-04-21T08:53:44.228Z,12.56
2023-04-21T08:54:46.720Z,12.59
2023-04-21T08:56:03.169Z,12.56
2023-04-21T08:57:04.557Z,12.32
2023-04-21T08:58:05.569Z,12.36
2023-04-21T08:59:07.544Z,12.65
2023-04-21T09:00:11.664Z,12.77
2023-04-21T09:01:13.795Z,12.96
2023-04-21T09:02:21.473Z,12.84
2023-04-21T09:03:26.401Z,12.96
2023-04-21T09:04:30.761Z,12.85
2023-04-21T09:05:34.575Z,12.80
2023-04-21T09:06:40.877Z,12.86
2023-04-21T09:07:42.951Z,12.89
2023-04-21T09:08:53.636Z,12.96
2023-04-21T09:09:57.477Z,12.92
2023-04-21T09:11:02.688Z,12.88
2023-04-21T09:12:06.483Z,12.85
2023-04-21T09:13:09.663Z,12.81
2023-04-21T09:14:11.609Z,12.91
2023-04-21T09:15:14.704Z,12.82
2023-04-21T09:16:21.151Z,12.85
2023-04-21T09:17:31.101Z,12.91
2023-04-21T09:18:33.169Z,12.63
2023-04-21T09:19:35.825Z,12.71
2023-04-21T09:20:37.904Z,12.89
2023-04-21T09:21:43.493Z,12.91
2023-04-21T09:22:49.302Z,12.52
2023-04-21T09:23:53.159Z,12.66
2023-04-21T09:24:58.722Z,12.77
2023-04-21T09:26:02.753Z,12.72
2023-04-21T09:27:05.907Z,12.70
2023-04-21T09:28:09.378Z,12.74
2023-04-21T09:29:11.389Z,12.88
2023-04-21T09:30:20.157Z,12.85
2023-04-21T09:31:25.300Z,12.97
2023-04-21T09:32:27.609Z,12.88
2023-04-21T09:33:45.637Z,13.08
2023-04-21T09:34:41.806Z,12.93
2023-04-21T09:35:43.738Z,12.77
2023-04-21T09:36:49.366Z,12.83
2023-04-21T09:37:51.393Z,12.75
2023-04-21T09:39:15.448Z,12.66
2023-04-21T09:41:07.454Z,12.33
2023-04-21T09:42:10.592Z,12.31
2023-04-21T09:43:12.466Z,12.20
2023-04-21T09:44:15.214Z,12.39
2023-04-21T09:45:36.666Z,12.34
2023-04-21T09:46:23.191Z,12.39
2023-04-21T09:47:28.581Z,12.23
2023-04-21T09:48:33.328Z,12.25
2023-04-21T09:49:37.982Z,12.24
2023-04-21T09:51:20.857Z,12.21
2023-04-21T09:54:13.032Z,12.23
2023-04-21T09:55:12.177Z,12.25
2023-04-21T09:56:17.884Z,12.32
2023-04-21T09:57:25.356Z,12.18
2023-04-21T09:58:30.334Z,11.96
2023-04-21T09:59:37.558Z,11.88
2023-04-21T10:00:40.320Z,11.78
2023-04-21T10:01:45.186Z,11.57
2023-04-21T10:02:51.140Z,11.63
2023-04-21T10:03:54.500Z,11.55
2023-04-21T10:04:57.579Z,11.59
2023-04-21T10:05:59.930Z,11.68
2023-04-21T10:07:04.867Z,11.70
2023-04-21T10:08:09.169Z,11.64
2023-04-21T10:09:12.394Z,11.66
2023-04-21T10:10:28.092Z,11.46
2023-04-21T10:11:30.319Z,11.60
2023-04-21T10:12:34.142Z,11.58
2023-04-21T10:13:37.535Z,11.52
2023-04-21T10:14:39.604Z,11.58
2023-04-21T10:15:42.029Z,11.73
2023-04-21T10:16:49.531Z,11.74
2023-04-21T10:17:51.589Z,11.82
2023-04-21T10:18:53.714Z,11.78
2023-04-21T10:19:57.134Z,11.86
2023-04-21T10:21:10.681Z,11.98
2023-04-21T10:22:13.294Z,11.90
2023-04-21T10:23:30.835Z,11.73
2023-04-21T10:24:41.943Z,11.71
2023-04-21T10:25:47.716Z,11.76
2023-04-21T10:26:54.627Z,11.75
2023-04-21T10:27:55.969Z,11.84
2023-04-21T10:29:00.125Z,11.89
2023-04-21T10:30:20.426Z,11.95
2023-04-21T10:31:25.697Z,12.11
2023-04-21T10:32:41.712Z,12.19
2023-04-21T10:34:09.012Z,12.26
2023-04-21T10:35:14.005Z,12.31
2023-04-21T10:36:19.970Z,12.29
2023-04-21T10:37:22.005Z,12.34
2023-04-21T10:38:40.199Z,12.36
2023-04-21T10:39:44.710Z,12.33
2023-04-21T10:40:47.811Z,12.45
2023-04-21T10:41:50.214Z,12.35
2023-04-21T10:42:52.072Z,12.48
2023-04-21T10:44:02.929Z,12.51
2023-04-21T10:45:08.404Z,12.49
2023-04-21T10:46:35.009Z,12.68
2023-04-21T10:47:43.341Z,12.45
2023-04-21T10:48:53.488Z,12.48
2023-04-21T10:49:57.089Z,12.52
2023-04-21T10:51:01.825Z,12.44
2023-04-21T10:52:08.180Z,12.51
2023-04-21T10:53:15.491Z,12.50
2023-04-21T10:54:19.512Z,12.37
2023-04-21T10:55:24.153Z,12.50
2023-04-21T10:56:26.143Z,12.26
2023-04-21T10:57:33.737Z,12.43
2023-04-21T10:58:37.073Z,12.43
2023-04-21T10:59:39.983Z,12.62
2023-04-21T11:00:42.912Z,12.68
2023-04-21T11:01:45.369Z,12.46
2023-04-21T11:03:05.972Z,12.61
2023-04-21T11:04:13.851Z,12.67
2023-04-21T11:05:16.366Z,12.86
2023-04-21T11:06:18.527Z,12.89
2023-04-21T11:07:24.969Z,12.82
2023-04-21T11:08:27.052Z,12.94
2023-04-21T11:09:29.662Z,12.98
2023-04-21T11:11:58.262Z,13.12
2023-04-21T11:13:00.296Z,13.28
2023-04-21T11:14:03.075Z,13.47
2023-04-21T11:15:09.276Z,13.55
2023-04-21T11:16:11.877Z,13.51
2023-04-21T11:17:16.390Z,13.29
2023-04-21T11:18:18.402Z,13.41
2023-04-21T11:19:22.034Z,13.46
2023-04-21T11:20:24.554Z,13.53
2023-04-21T11:21:28.960Z,13.72
2023-04-21T11:22:30.954Z,13.68
2023-04-21T11:23:32.936Z,13.48
2023-04-21T11:24:34.813Z,13.69
2023-04-21T11:25:36.901Z,13.63
2023-04-21T11:26:39.166Z,13.75
2023-04-21T11:27:41.043Z,13.66
2023-04-21T11:28:42.887Z,13.78
2023-04-21T11:29:45.984Z,13.77
2023-04-21T11:30:48.282Z,13.75
2023-04-21T11:31:50.857Z,13.68
2023-04-21T11:32:56.101Z,13.68
2023-04-21T11:33:59.743Z,13.52
2023-04-21T11:35:01.866Z,13.61
2023-04-21T11:36:07.369Z,13.55
2023-04-21T11:37:12.033Z,13.65
2023-04-21T11:38:14.023Z,13.77
2023-04-21T11:39:18.175Z,13.57
2023-04-21T11:40:21.142Z,13.54
2023-04-21T11:41:23.741Z,13.46
2023-04-21T11:42:27.045Z,13.57
2023-04-21T11:43:29.063Z,13.62
2023-04-21T11:44:41.962Z,13.62
2023-04-21T11:45:47.751Z,13.70
2023-04-21T11:46:50.300Z,13.89
2023-04-21T11:47:56.109Z,13.61
2023-04-21T11:49:06.886Z,13.61
2023-04-21T11:50:10.736Z,13.76
2023-04-21T11:51:19.291Z,13.84
2023-04-21T11:52:32.352Z,13.70
2023-04-21T11:53:34.494Z,13.78
2023-04-21T11:54:38.089Z,13.85
2023-04-21T11:56:56.224Z,13.99
2023-04-21T11:57:58.538Z,13.77
2023-04-21T11:59:00.644Z,13.84
2023-04-21T12:00:05.516Z,13.91
2023-04-21T12:01:08.802Z,13.88
2023-04-21T12:02:14.672Z,13.87
2023-04-21T12:03:19.323Z,13.97
2023-04-21T12:04:23.821Z,13.64
2023-04-21T12:05:34.717Z,13.77
2023-04-21T12:06:37.085Z,13.86
2023-04-21T12:07:42.419Z,13.74
2023-04-21T12:08:44.359Z,13.74
2023-04-21T12:09:50.312Z,13.70
2023-04-21T12:10:52.325Z,13.71
2023-04-21T12:11:56.186Z,13.80
2023-04-21T12:12:58.194Z,13.72
2023-04-21T12:14:01.257Z,13.69
2023-04-21T12:15:04.593Z,13.72
2023-04-21T12:16:07.096Z,13.75
2023-04-21T12:17:09.187Z,13.80
2023-04-21T12:18:15.586Z,13.70
2023-04-21T12:19:41.182Z,13.74
2023-04-21T12:20:52.035Z,13.83
2023-04-21T12:21:54.967Z,13.77
2023-04-21T12:22:57.026Z,13.93
2023-04-21T12:23:59.006Z,13.93
2023-04-21T12:25:01.075Z,14.01
2023-04-21T12:26:04.557Z,14.04
2023-04-21T12:27:08.694Z,14.12
2023-04-21T12:28:10.900Z,14.20
2023-04-21T12:29:13.007Z,14.22
2023-04-21T12:30:15.179Z,14.28
2023-04-21T12:31:19.893Z,13.94
2023-04-21T12:32:24.484Z,14.22
2023-04-21T12:33:26.726Z,14.17
2023-04-21T12:34:28.858Z,14.32
2023-04-21T12:35:30.854Z,14.42
2023-04-21T12:36:35.340Z,14.41
2023-04-21T12:37:37.087Z,14.39
2023-04-21T12:38:38.987Z,14.38
2023-04-21T12:39:42.018Z,14.42
2023-04-21T12:40:44.109Z,14.23
2023-04-21T12:41:45.989Z,14.39
2023-04-21T12:42:47.844Z,14.53
2023-04-21T12:43:49.737Z,14.68
2023-04-21T12:44:51.665Z,14.77
2023-04-21T12:45:53.595Z,14.69
2023-04-21T12:46:55.862Z,14.66
2023-04-21T12:47:57.801Z,14.77
2023-04-21T12:49:04.180Z,14.80
2023-04-21T12:50:07.931Z,14.77
2023-04-21T12:51:09.920Z,14.64
2023-04-21T12:52:11.779Z,14.67
2023-04-21T12:53:14.455Z,14.74
2023-04-21T12:54:16.557Z,14.67
2023-04-21T12:55:18.599Z,14.74
2023-04-21T12:56:20.678Z,14.79
2023-04-21T12:57:23.330Z,14.43
2023-04-21T12:58:25.230Z,14.61
2023-04-21T12:59:27.302Z,14.49
2023-04-21T13:00:29.660Z,14.50
2023-04-21T13:01:32.079Z,14.48
2023-04-21T13:02:34.104Z,14.57
2023-04-21T13:03:36.239Z,14.64
2023-04-21T13:04:38.296Z,14.64
2023-04-21T13:05:40.414Z,14.64
2023-04-21T13:06:42.610Z,14.69
2023-04-21T13:07:44.818Z,14.74
2023-04-21T13:08:47.675Z,14.82
2023-04-21T13:09:49.965Z,14.72
2023-04-21T13:10:53.376Z,14.79
2023-04-21T13:11:55.693Z,14.60
2023-04-21T13:12:57.710Z,14.61
2023-04-21T13:13:59.591Z,14.74
2023-04-21T13:15:01.947Z,14.63
2023-04-21T13:16:06.073Z,14.70
2023-04-21T13:17:10.716Z,14.77
2023-04-21T13:18:12.800Z,14.80
2023-04-21T13:19:14.687Z,14.82
2023-04-21T13:20:18.392Z,14.71
2023-04-21T13:21:20.559Z,14.65
2023-04-21T13:22:22.544Z,14.77
2023-04-21T13:23:26.276Z,14.86
2023-04-21T13:24:29.067Z,14.89
2023-04-21T13:25:31.854Z,14.81
2023-04-21T13:26:33.935Z,14.74
2023-04-21T13:27:35.991Z,14.87
2023-04-21T13:28:38.077Z,14.92
2023-04-21T13:29:40.051Z,14.83
2023-04-21T13:30:42.502Z,14.87
2023-04-21T13:31:45.051Z,14.86
2023-04-21T13:32:48.760Z,14.95
2023-04-21T13:33:52.982Z,14.77
2023-04-21T13:34:54.599Z,14.88
2023-04-21T13:35:56.507Z,14.86
2023-04-21T13:36:59.344Z,14.68
2023-04-21T13:38:02.327Z,14.75
2023-04-21T13:39:04.311Z,14.75
2023-04-21T13:40:09.227Z,14.78
2023-04-21T13:41:11.328Z,14.73
2023-04-21T13:42:13.314Z,14.70
2023-04-21T13:43:15.295Z,14.82
2023-04-21T13:44:19.188Z,14.83
2023-04-21T13:45:21.207Z,14.77
2023-04-21T13:46:25.053Z,14.79
2023-04-21T13:47:28.423Z,14.76
2023-04-21T13:48:31.626Z,14.74
2023-04-21T13:49:34.782Z,14.79
2023-04-21T13:50:37.145Z,14.60
2023-04-21T13:51:40.790Z,14.62
2023-04-21T13:52:43.907Z,14.73
2023-04-21T13:53:45.947Z,14.85
2023-04-21T13:54:47.833Z,14.83